sensor_id;sensor_type;location;lat;lon;timestamp;P1;durP1;ratioP1;P2;durP2;ratioP2
23300;SDS011;11819;51.394;12.340;2023-05-16T00:00:32;17.77;;;15.65;;
23300;SDS011;11819;51.394;12.340;2023-05-16T00:03:00;19.50;;;15.20;;
23300;SDS011;11819;51.394;12.340;2023-05-16T00:05:27;21.08;;;16.20;;
23300;SDS011;11819;51.394;12.340;2023-05-16T00:07:52;19.17;;;15.75;;
23300;SDS011;11819;51.394;12.340;2023-05-16T00:10:18;18.60;;;16.08;;
23300;SDS011;11819;51.394;12.340;2023-05-16T00:12:43;20.90;;;15.63;;
23300;SDS011;11819;51.394;12.340;2023-05-16T00:15:10;17.52;;;15.07;;
23300;SDS011;11819;51.394;12.340;2023-05-16T00:17:38;18.52;;;15.85;;
23300;SDS011;11819;51.394;12.340;2023-05-16T00:20:05;20.52;;;16.00;;
23300;SDS011;11819;51.394;12.340;2023-05-16T00:22:31;18.52;;;16.15;;
23300;SDS011;11819;51.394;12.340;2023-05-16T00:24:58;18.67;;;15.30;;
23300;SDS011;11819;51.394;12.340;2023-05-16T00:27:24;20.02;;;15.98;;
23300;SDS011;11819;51.394;12.340;2023-05-16T00:29:50;19.45;;;16.08;;
23300;SDS011;11819;51.394;12.340;2023-05-16T00:32:16;19.67;;;16.60;;
23300;SDS011;11819;51.394;12.340;2023-05-16T00:34:42;19.70;;;16.52;;
23300;SDS011;11819;51.394;12.340;2023-05-16T00:37:08;19.90;;;16.00;;
23300;SDS011;11819;51.394;12.340;2023-05-16T00:39:35;18.58;;;14.90;;
23300;SDS011;11819;51.394;12.340;2023-05-16T00:42:01;21.25;;;15.50;;
23300;SDS011;11819;51.394;12.340;2023-05-16T00:44:27;21.00;;;16.67;;
23300;SDS011;11819;51.394;12.340;2023-05-16T00:46:53;18.38;;;15.65;;
23300;SDS011;11819;51.394;12.340;2023-05-16T00:49:18;20.70;;;17.42;;
23300;SDS011;11819;51.394;12.340;2023-05-16T00:51:50;19.45;;;16.23;;
23300;SDS011;11819;51.394;12.340;2023-05-16T00:54:17;21.85;;;16.73;;
23300;SDS011;11819;51.394;12.340;2023-05-16T00:56:45;23.27;;;16.50;;
23300;SDS011;11819;51.394;12.340;2023-05-16T00:59:10;20.23;;;17.25;;
23300;SDS011;11819;51.394;12.340;2023-05-16T01:01:37;21.73;;;17.70;;
23300;SDS011;11819;51.394;12.340;2023-05-16T01:04:04;22.95;;;18.25;;
23300;SDS011;11819;51.394;12.340;2023-05-16T01:06:32;20.98;;;17.23;;
23300;SDS011;11819;51.394;12.340;2023-05-16T01:08:59;22.17;;;17.55;;
23300;SDS011;11819;51.394;12.340;2023-05-16T01:11:33;21.08;;;16.60;;
23300;SDS011;11819;51.394;12.340;2023-05-16T01:27:38;22.08;;;16.42;;
23300;SDS011;11819;51.394;12.340;2023-05-16T01:30:18;20.00;;;16.33;;
23300;SDS011;11819;51.394;12.340;2023-05-16T01:32:44;21.52;;;16.73;;
23300;SDS011;11819;51.394;12.340;2023-05-16T01:35:11;22.08;;;16.67;;
23300;SDS011;11819;51.394;12.340;2023-05-16T01:37:57;22.35;;;15.68;;
23300;SDS011;11819;51.394;12.340;2023-05-16T01:40:35;22.58;;;15.32;;
23300;SDS011;11819;51.394;12.340;2023-05-16T01:43:13;21.95;;;16.08;;
23300;SDS011;11819;51.394;12.340;2023-05-16T01:45:44;21.15;;;15.57;;
23300;SDS011;11819;51.394;12.340;2023-05-16T01:48:21;22.35;;;14.93;;
23300;SDS011;11819;51.394;12.340;2023-05-16T01:50:51;21.77;;;15.50;;
23300;SDS011;11819;51.394;12.340;2023-05-16T01:53:27;21.27;;;15.32;;
23300;SDS011;11819;51.394;12.340;2023-05-16T01:55:58;23.88;;;15.95;;
23300;SDS011;11819;51.394;12.340;2023-05-16T01:58:26;20.77;;;15.15;;
23300;SDS011;11819;51.394;12.340;2023-05-16T02:01:00;21.55;;;15.55;;
23300;SDS011;11819;51.394;12.340;2023-05-16T02:03:29;21.25;;;15.50;;
23300;SDS011;11819;51.394;12.340;2023-05-16T02:05:55;21.05;;;15.35;;
23300;SDS011;11819;51.394;12.340;2023-05-16T02:08:22;20.88;;;15.02;;
23300;SDS011;11819;51.394;12.340;2023-05-16T02:10:50;21.70;;;16.58;;
23300;SDS011;11819;51.394;12.340;2023-05-16T02:13:16;20.98;;;15.40;;
23300;SDS011;11819;51.394;12.340;2023-05-16T02:15:43;24.65;;;18.05;;
23300;SDS011;11819;51.394;12.340;2023-05-16T02:18:09;22.95;;;17.88;;
23300;SDS011;11819;51.394;12.340;2023-05-16T02:20:35;25.70;;;18.55;;
23300;SDS011;11819;51.394;12.340;2023-05-16T02:23:00;25.88;;;18.25;;
23300;SDS011;11819;51.394;12.340;2023-05-16T02:25:27;26.23;;;18.95;;
23300;SDS011;11819;51.394;12.340;2023-05-16T02:27:53;26.52;;;18.40;;
23300;SDS011;11819;51.394;12.340;2023-05-16T02:30:19;28.33;;;19.65;;
23300;SDS011;11819;51.394;12.340;2023-05-16T02:32:46;25.50;;;19.33;;
23300;SDS011;11819;51.394;12.340;2023-05-16T02:35:13;29.48;;;20.17;;
23300;SDS011;11819;51.394;12.340;2023-05-16T02:37:39;29.05;;;20.35;;
23300;SDS011;11819;51.394;12.340;2023-05-16T02:40:06;32.35;;;21.77;;
23300;SDS011;11819;51.394;12.340;2023-05-16T02:42:35;39.13;;;23.45;;
23300;SDS011;11819;51.394;12.340;2023-05-16T02:45:00;35.63;;;23.55;;
23300;SDS011;11819;51.394;12.340;2023-05-16T02:47:26;37.33;;;25.25;;
23300;SDS011;11819;51.394;12.340;2023-05-16T02:49:52;39.83;;;25.92;;
23300;SDS011;11819;51.394;12.340;2023-05-16T02:52:18;41.67;;;26.77;;
23300;SDS011;11819;51.394;12.340;2023-05-16T02:54:49;39.20;;;25.17;;
23300;SDS011;11819;51.394;12.340;2023-05-16T02:57:14;41.38;;;26.45;;
23300;SDS011;11819;51.394;12.340;2023-05-16T02:59:40;43.92;;;28.77;;
23300;SDS011;11819;51.394;12.340;2023-05-16T03:02:06;46.08;;;30.70;;
23300;SDS011;11819;51.394;12.340;2023-05-16T03:04:32;44.42;;;28.38;;
23300;SDS011;11819;51.394;12.340;2023-05-16T03:06:58;47.25;;;27.98;;
23300;SDS011;11819;51.394;12.340;2023-05-16T03:09:26;42.72;;;29.90;;
23300;SDS011;11819;51.394;12.340;2023-05-16T03:11:51;44.10;;;28.27;;
23300;SDS011;11819;51.394;12.340;2023-05-16T03:14:18;40.25;;;24.60;;
23300;SDS011;11819;51.394;12.340;2023-05-16T03:16:44;45.08;;;28.15;;
23300;SDS011;11819;51.394;12.340;2023-05-16T03:19:12;45.85;;;27.60;;
23300;SDS011;11819;51.394;12.340;2023-05-16T03:21:38;43.65;;;28.15;;
23300;SDS011;11819;51.394;12.340;2023-05-16T03:24:04;44.92;;;29.15;;
23300;SDS011;11819;51.394;12.340;2023-05-16T03:26:30;44.70;;;26.65;;
23300;SDS011;11819;51.394;12.340;2023-05-16T03:28:56;47.50;;;29.58;;
23300;SDS011;11819;51.394;12.340;2023-05-16T03:31:21;43.25;;;25.88;;
23300;SDS011;11819;51.394;12.340;2023-05-16T03:33:47;42.42;;;27.55;;
23300;SDS011;11819;51.394;12.340;2023-05-16T03:36:12;42.55;;;27.23;;
23300;SDS011;11819;51.394;12.340;2023-05-16T03:38:38;43.83;;;28.48;;
23300;SDS011;11819;51.394;12.340;2023-05-16T03:41:04;45.33;;;27.45;;
23300;SDS011;11819;51.394;12.340;2023-05-16T03:43:30;42.63;;;26.80;;
23300;SDS011;11819;51.394;12.340;2023-05-16T03:45:55;35.60;;;19.08;;
23300;SDS011;11819;51.394;12.340;2023-05-16T03:48:21;39.90;;;25.85;;
23300;SDS011;11819;51.394;12.340;2023-05-16T03:50:46;40.65;;;27.33;;
23300;SDS011;11819;51.394;12.340;2023-05-16T03:53:12;41.75;;;27.60;;
23300;SDS011;11819;51.394;12.340;2023-05-16T03:55:38;42.08;;;26.27;;
23300;SDS011;11819;51.394;12.340;2023-05-16T03:58:03;43.38;;;27.95;;
23300;SDS011;11819;51.394;12.340;2023-05-16T04:00:29;37.17;;;24.48;;
23300;SDS011;11819;51.394;12.340;2023-05-16T04:02:54;37.85;;;23.73;;
23300;SDS011;11819;51.394;12.340;2023-05-16T04:05:20;40.58;;;24.83;;
23300;SDS011;11819;51.394;12.340;2023-05-16T04:07:46;40.25;;;24.60;;
23300;SDS011;11819;51.394;12.340;2023-05-16T04:10:12;35.78;;;24.33;;
23300;SDS011;11819;51.394;12.340;2023-05-16T04:12:39;35.53;;;23.73;;
23300;SDS011;11819;51.394;12.340;2023-05-16T04:15:05;38.90;;;24.15;;
23300;SDS011;11819;51.394;12.340;2023-05-16T04:17:31;36.22;;;23.50;;
23300;SDS011;11819;51.394;12.340;2023-05-16T04:19:57;33.70;;;22.00;;
23300;SDS011;11819;51.394;12.340;2023-05-16T04:22:23;33.33;;;22.33;;
23300;SDS011;11819;51.394;12.340;2023-05-16T04:24:49;36.75;;;22.75;;
23300;SDS011;11819;51.394;12.340;2023-05-16T04:27:16;36.50;;;22.17;;
23300;SDS011;11819;51.394;12.340;2023-05-16T04:29:42;32.70;;;22.60;;
23300;SDS011;11819;51.394;12.340;2023-05-16T04:32:09;36.60;;;21.45;;
23300;SDS011;11819;51.394;12.340;2023-05-16T04:34:36;33.03;;;20.52;;
23300;SDS011;11819;51.394;12.340;2023-05-16T04:37:03;32.95;;;21.58;;
23300;SDS011;11819;51.394;12.340;2023-05-16T04:39:29;32.80;;;21.35;;
23300;SDS011;11819;51.394;12.340;2023-05-16T04:41:56;33.40;;;22.52;;
23300;SDS011;11819;51.394;12.340;2023-05-16T04:44:27;33.53;;;20.65;;
23300;SDS011;11819;51.394;12.340;2023-05-16T04:46:53;31.58;;;19.83;;
23300;SDS011;11819;51.394;12.340;2023-05-16T04:49:19;33.63;;;21.67;;
23300;SDS011;11819;51.394;12.340;2023-05-16T04:51:45;32.85;;;20.73;;
23300;SDS011;11819;51.394;12.340;2023-05-16T04:54:12;35.35;;;21.17;;
23300;SDS011;11819;51.394;12.340;2023-05-16T04:56:38;31.23;;;20.98;;
23300;SDS011;11819;51.394;12.340;2023-05-16T04:59:03;34.97;;;22.60;;
23300;SDS011;11819;51.394;12.340;2023-05-16T05:01:29;34.10;;;21.50;;
23300;SDS011;11819;51.394;12.340;2023-05-16T05:03:55;32.38;;;19.55;;
23300;SDS011;11819;51.394;12.340;2023-05-16T05:06:20;30.38;;;16.90;;
23300;SDS011;11819;51.394;12.340;2023-05-16T05:08:46;31.38;;;19.17;;
23300;SDS011;11819;51.394;12.340;2023-05-16T05:11:12;28.00;;;18.23;;
23300;SDS011;11819;51.394;12.340;2023-05-16T05:13:41;26.20;;;16.83;;
23300;SDS011;11819;51.394;12.340;2023-05-16T05:16:06;28.52;;;19.63;;
23300;SDS011;11819;51.394;12.340;2023-05-16T05:18:32;24.17;;;16.08;;
23300;SDS011;11819;51.394;12.340;2023-05-16T05:20:59;25.60;;;17.08;;
23300;SDS011;11819;51.394;12.340;2023-05-16T05:23:25;23.90;;;16.52;;
23300;SDS011;11819;51.394;12.340;2023-05-16T05:25:50;23.83;;;16.55;;
23300;SDS011;11819;51.394;12.340;2023-05-16T05:28:16;23.38;;;15.60;;
23300;SDS011;11819;51.394;12.340;2023-05-16T05:30:42;21.48;;;14.57;;
23300;SDS011;11819;51.394;12.340;2023-05-16T05:33:09;24.35;;;15.32;;
23300;SDS011;11819;51.394;12.340;2023-05-16T05:35:36;20.48;;;13.95;;
23300;SDS011;11819;51.394;12.340;2023-05-16T05:38:02;22.10;;;14.77;;
23300;SDS011;11819;51.394;12.340;2023-05-16T05:40:28;19.60;;;14.80;;
23300;SDS011;11819;51.394;12.340;2023-05-16T05:42:53;19.40;;;13.48;;
23300;SDS011;11819;51.394;12.340;2023-05-16T05:45:19;18.67;;;12.82;;
23300;SDS011;11819;51.394;12.340;2023-05-16T05:47:45;21.63;;;12.45;;
23300;SDS011;11819;51.394;12.340;2023-05-16T05:50:12;16.75;;;12.00;;
23300;SDS011;11819;51.394;12.340;2023-05-16T05:52:38;19.02;;;12.55;;
23300;SDS011;11819;51.394;12.340;2023-05-16T05:55:04;19.48;;;12.30;;
23300;SDS011;11819;51.394;12.340;2023-05-16T05:57:30;18.58;;;12.57;;
23300;SDS011;11819;51.394;12.340;2023-05-16T05:59:56;18.02;;;12.45;;
23300;SDS011;11819;51.394;12.340;2023-05-16T06:02:21;17.58;;;11.25;;
23300;SDS011;11819;51.394;12.340;2023-05-16T06:04:47;18.90;;;12.10;;
23300;SDS011;11819;51.394;12.340;2023-05-16T06:07:12;18.50;;;12.13;;
23300;SDS011;11819;51.394;12.340;2023-05-16T06:09:40;16.75;;;12.25;;
23300;SDS011;11819;51.394;12.340;2023-05-16T06:12:07;16.67;;;11.30;;
23300;SDS011;11819;51.394;12.340;2023-05-16T06:14:33;16.20;;;11.20;;
23300;SDS011;11819;51.394;12.340;2023-05-16T06:16:58;14.20;;;9.65;;
23300;SDS011;11819;51.394;12.340;2023-05-16T06:19:24;15.05;;;10.57;;
23300;SDS011;11819;51.394;12.340;2023-05-16T06:21:50;16.92;;;10.80;;
23300;SDS011;11819;51.394;12.340;2023-05-16T06:24:16;13.98;;;9.50;;
23300;SDS011;11819;51.394;12.340;2023-05-16T06:26:41;11.25;;;8.27;;
23300;SDS011;11819;51.394;12.340;2023-05-16T06:29:10;10.48;;;8.30;;
23300;SDS011;11819;51.394;12.340;2023-05-16T06:31:35;11.68;;;7.70;;
23300;SDS011;11819;51.394;12.340;2023-05-16T06:34:01;9.30;;;7.28;;
23300;SDS011;11819;51.394;12.340;2023-05-16T06:36:27;10.80;;;8.32;;
23300;SDS011;11819;51.394;12.340;2023-05-16T06:38:53;13.25;;;8.18;;
23300;SDS011;11819;51.394;12.340;2023-05-16T06:41:19;10.10;;;7.45;;
23300;SDS011;11819;51.394;12.340;2023-05-16T06:43:45;10.75;;;7.68;;
23300;SDS011;11819;51.394;12.340;2023-05-16T06:46:11;10.65;;;7.18;;
23300;SDS011;11819;51.394;12.340;2023-05-16T06:48:36;11.80;;;7.80;;
23300;SDS011;11819;51.394;12.340;2023-05-16T06:51:02;10.80;;;8.07;;
23300;SDS011;11819;51.394;12.340;2023-05-16T06:53:28;11.65;;;7.38;;
23300;SDS011;11819;51.394;12.340;2023-05-16T06:55:54;10.30;;;7.65;;
23300;SDS011;11819;51.394;12.340;2023-05-16T06:58:20;9.93;;;6.53;;
23300;SDS011;11819;51.394;12.340;2023-05-16T07:00:45;10.50;;;7.30;;
23300;SDS011;11819;51.394;12.340;2023-05-16T07:03:13;10.80;;;5.95;;
23300;SDS011;11819;51.394;12.340;2023-05-16T07:05:38;9.32;;;6.65;;
23300;SDS011;11819;51.394;12.340;2023-05-16T07:08:04;10.68;;;6.68;;
23300;SDS011;11819;51.394;12.340;2023-05-16T07:10:30;10.05;;;7.00;;
23300;SDS011;11819;51.394;12.340;2023-05-16T07:12:55;9.43;;;6.57;;
23300;SDS011;11819;51.394;12.340;2023-05-16T07:15:22;12.25;;;6.80;;
23300;SDS011;11819;51.394;12.340;2023-05-16T07:17:49;9.63;;;6.70;;
23300;SDS011;11819;51.394;12.340;2023-05-16T07:20:16;11.13;;;6.78;;
23300;SDS011;11819;51.394;12.340;2023-05-16T07:22:42;10.45;;;7.10;;
23300;SDS011;11819;51.394;12.340;2023-05-16T07:25:07;10.63;;;7.72;;
23300;SDS011;11819;51.394;12.340;2023-05-16T07:27:37;12.35;;;7.68;;
23300;SDS011;11819;51.394;12.340;2023-05-16T07:30:10;11.05;;;7.25;;
23300;SDS011;11819;51.394;12.340;2023-05-16T07:32:37;10.20;;;6.65;;
23300;SDS011;11819;51.394;12.340;2023-05-16T07:35:03;12.63;;;7.43;;
23300;SDS011;11819;51.394;12.340;2023-05-16T07:37:29;10.68;;;7.30;;
23300;SDS011;11819;51.394;12.340;2023-05-16T07:39:55;11.00;;;7.45;;
23300;SDS011;11819;51.394;12.340;2023-05-16T07:42:21;11.75;;;7.97;;
23300;SDS011;11819;51.394;12.340;2023-05-16T07:44:48;11.90;;;8.15;;
23300;SDS011;11819;51.394;12.340;2023-05-16T07:47:13;11.60;;;7.30;;
23300;SDS011;11819;51.394;12.340;2023-05-16T07:49:39;15.57;;;8.20;;
23300;SDS011;11819;51.394;12.340;2023-05-16T07:52:09;11.02;;;7.43;;
23300;SDS011;11819;51.394;12.340;2023-05-16T07:54:34;14.27;;;8.88;;
23300;SDS011;11819;51.394;12.340;2023-05-16T07:57:01;11.07;;;7.35;;
23300;SDS011;11819;51.394;12.340;2023-05-16T07:59:27;13.15;;;7.38;;
23300;SDS011;11819;51.394;12.340;2023-05-16T08:01:52;10.13;;;6.53;;
23300;SDS011;11819;51.394;12.340;2023-05-16T08:04:20;9.65;;;7.07;;
23300;SDS011;11819;51.394;12.340;2023-05-16T08:06:46;11.02;;;7.18;;
23300;SDS011;11819;51.394;12.340;2023-05-16T08:09:11;11.35;;;6.05;;
23300;SDS011;11819;51.394;12.340;2023-05-16T08:11:37;12.48;;;6.13;;
23300;SDS011;11819;51.394;12.340;2023-05-16T08:14:04;8.85;;;5.50;;
23300;SDS011;11819;51.394;12.340;2023-05-16T08:16:29;10.20;;;5.57;;
23300;SDS011;11819;51.394;12.340;2023-05-16T08:18:55;10.27;;;5.43;;
23300;SDS011;11819;51.394;12.340;2023-05-16T08:21:21;8.75;;;4.90;;
23300;SDS011;11819;51.394;12.340;2023-05-16T08:23:46;9.50;;;4.57;;
23300;SDS011;11819;51.394;12.340;2023-05-16T08:26:13;8.63;;;4.82;;
23300;SDS011;11819;51.394;12.340;2023-05-16T08:28:40;6.38;;;4.50;;
23300;SDS011;11819;51.394;12.340;2023-05-16T08:31:05;8.88;;;4.93;;
23300;SDS011;11819;51.394;12.340;2023-05-16T08:33:31;7.30;;;4.78;;
23300;SDS011;11819;51.394;12.340;2023-05-16T08:35:57;8.15;;;4.38;;
23300;SDS011;11819;51.394;12.340;2023-05-16T08:38:23;7.15;;;4.15;;
23300;SDS011;11819;51.394;12.340;2023-05-16T08:40:50;7.13;;;4.70;;
23300;SDS011;11819;51.394;12.340;2023-05-16T08:43:15;8.00;;;4.68;;
23300;SDS011;11819;51.394;12.340;2023-05-16T08:45:41;7.75;;;4.97;;
23300;SDS011;11819;51.394;12.340;2023-05-16T08:48:07;8.00;;;5.10;;
23300;SDS011;11819;51.394;12.340;2023-05-16T08:50:34;9.77;;;4.60;;
23300;SDS011;11819;51.394;12.340;2023-05-16T08:53:03;6.63;;;3.97;;
23300;SDS011;11819;51.394;12.340;2023-05-16T08:55:31;4.78;;;3.50;;
23300;SDS011;11819;51.394;12.340;2023-05-16T08:57:57;5.05;;;3.35;;
23300;SDS011;11819;51.394;12.340;2023-05-16T09:00:23;6.22;;;3.90;;
23300;SDS011;11819;51.394;12.340;2023-05-16T09:02:49;6.85;;;3.50;;
23300;SDS011;11819;51.394;12.340;2023-05-16T09:05:16;8.13;;;4.05;;
23300;SDS011;11819;51.394;12.340;2023-05-16T09:07:42;6.40;;;3.72;;
23300;SDS011;11819;51.394;12.340;2023-05-16T09:10:08;7.30;;;4.47;;
23300;SDS011;11819;51.394;12.340;2023-05-16T09:12:34;6.95;;;4.43;;
23300;SDS011;11819;51.394;12.340;2023-05-16T09:15:02;7.35;;;4.82;;
23300;SDS011;11819;51.394;12.340;2023-05-16T09:17:39;8.00;;;5.20;;
23300;SDS011;11819;51.394;12.340;2023-05-16T09:20:14;7.30;;;5.40;;
23300;SDS011;11819;51.394;12.340;2023-05-16T09:22:51;8.75;;;5.20;;
23300;SDS011;11819;51.394;12.340;2023-05-16T09:25:20;7.63;;;4.97;;
23300;SDS011;11819;51.394;12.340;2023-05-16T09:27:47;7.80;;;4.43;;
23300;SDS011;11819;51.394;12.340;2023-05-16T09:30:26;8.45;;;4.70;;
23300;SDS011;11819;51.394;12.340;2023-05-16T09:32:54;7.03;;;4.45;;
23300;SDS011;11819;51.394;12.340;2023-05-16T09:35:20;7.82;;;4.90;;
23300;SDS011;11819;51.394;12.340;2023-05-16T09:37:47;6.55;;;4.15;;
23300;SDS011;11819;51.394;12.340;2023-05-16T09:40:13;7.55;;;4.32;;
23300;SDS011;11819;51.394;12.340;2023-05-16T09:42:39;5.43;;;2.97;;
23300;SDS011;11819;51.394;12.340;2023-05-16T09:45:05;8.10;;;4.15;;
23300;SDS011;11819;51.394;12.340;2023-05-16T09:47:31;6.97;;;3.97;;
23300;SDS011;11819;51.394;12.340;2023-05-16T09:49:57;5.85;;;3.30;;
23300;SDS011;11819;51.394;12.340;2023-05-16T09:52:26;5.93;;;3.22;;
23300;SDS011;11819;51.394;12.340;2023-05-16T09:54:51;6.90;;;3.45;;
23300;SDS011;11819;51.394;12.340;2023-05-16T09:57:19;8.15;;;4.18;;
23300;SDS011;11819;51.394;12.340;2023-05-16T09:59:45;9.73;;;4.70;;
23300;SDS011;11819;51.394;12.340;2023-05-16T10:02:11;8.25;;;4.50;;
23300;SDS011;11819;51.394;12.340;2023-05-16T10:04:37;5.65;;;3.22;;
23300;SDS011;11819;51.394;12.340;2023-05-16T10:07:03;5.85;;;3.08;;
23300;SDS011;11819;51.394;12.340;2023-05-16T10:09:33;5.43;;;3.20;;
23300;SDS011;11819;51.394;12.340;2023-05-16T10:12:01;5.50;;;3.00;;
23300;SDS011;11819;51.394;12.340;2023-05-16T10:14:30;5.18;;;3.15;;
23300;SDS011;11819;51.394;12.340;2023-05-16T10:17:02;5.97;;;2.67;;
23300;SDS011;11819;51.394;12.340;2023-05-16T10:19:30;5.95;;;2.83;;
23300;SDS011;11819;51.394;12.340;2023-05-16T10:21:59;6.80;;;3.00;;
23300;SDS011;11819;51.394;12.340;2023-05-16T10:27:09;9.98;;;3.88;;
23300;SDS011;11819;51.394;12.340;2023-05-16T10:29:36;7.15;;;3.45;;
23300;SDS011;11819;51.394;12.340;2023-05-16T10:32:03;8.20;;;3.88;;
23300;SDS011;11819;51.394;12.340;2023-05-16T10:34:31;10.35;;;3.92;;
23300;SDS011;11819;51.394;12.340;2023-05-16T10:36:57;5.38;;;3.10;;
23300;SDS011;11819;51.394;12.340;2023-05-16T10:39:23;6.60;;;3.33;;
23300;SDS011;11819;51.394;12.340;2023-05-16T10:41:49;7.45;;;3.50;;
23300;SDS011;11819;51.394;12.340;2023-05-16T10:44:15;8.52;;;3.65;;
23300;SDS011;11819;51.394;12.340;2023-05-16T10:46:41;7.10;;;2.85;;
23300;SDS011;11819;51.394;12.340;2023-05-16T10:49:20;9.10;;;3.88;;
23300;SDS011;11819;51.394;12.340;2023-05-16T10:52:03;6.50;;;3.53;;
23300;SDS011;11819;51.394;12.340;2023-05-16T10:54:37;11.20;;;3.75;;
23300;SDS011;11819;51.394;12.340;2023-05-16T10:57:05;9.55;;;4.10;;
23300;SDS011;11819;51.394;12.340;2023-05-16T10:59:48;7.13;;;3.65;;
23300;SDS011;11819;51.394;12.340;2023-05-16T11:02:26;7.75;;;2.80;;
23300;SDS011;11819;51.394;12.340;2023-05-16T11:04:54;9.13;;;3.50;;
23300;SDS011;11819;51.394;12.340;2023-05-16T11:07:23;6.85;;;3.15;;
23300;SDS011;11819;51.394;12.340;2023-05-16T11:10:14;8.43;;;3.65;;
23300;SDS011;11819;51.394;12.340;2023-05-16T11:12:44;9.27;;;3.45;;
23300;SDS011;11819;51.394;12.340;2023-05-16T11:15:16;6.85;;;3.28;;
23300;SDS011;11819;51.394;12.340;2023-05-16T11:17:49;5.95;;;3.50;;
23300;SDS011;11819;51.394;12.340;2023-05-16T11:20:29;9.30;;;3.45;;
23300;SDS011;11819;51.394;12.340;2023-05-16T11:25:41;7.93;;;3.30;;
23300;SDS011;11819;51.394;12.340;2023-05-16T11:28:07;9.43;;;3.60;;
23300;SDS011;11819;51.394;12.340;2023-05-16T11:30:34;7.55;;;3.50;;
23300;SDS011;11819;51.394;12.340;2023-05-16T11:33:00;13.20;;;3.88;;
23300;SDS011;11819;51.394;12.340;2023-05-16T11:35:26;9.45;;;3.50;;
23300;SDS011;11819;51.394;12.340;2023-05-16T11:37:53;10.15;;;3.03;;
23300;SDS011;11819;51.394;12.340;2023-05-16T11:40:19;7.97;;;3.17;;
23300;SDS011;11819;51.394;12.340;2023-05-16T11:42:45;10.40;;;3.20;;
23300;SDS011;11819;51.394;12.340;2023-05-16T11:45:14;9.30;;;3.47;;
23300;SDS011;11819;51.394;12.340;2023-05-16T11:47:41;8.00;;;3.58;;
23300;SDS011;11819;51.394;12.340;2023-05-16T11:50:13;9.50;;;3.38;;
23300;SDS011;11819;51.394;12.340;2023-05-16T11:52:43;8.32;;;3.40;;
23300;SDS011;11819;51.394;12.340;2023-05-16T11:55:13;7.45;;;3.67;;
23300;SDS011;11819;51.394;12.340;2023-05-16T11:57:42;10.73;;;3.30;;
23300;SDS011;11819;51.394;12.340;2023-05-16T12:02:43;7.47;;;3.28;;
23300;SDS011;11819;51.394;12.340;2023-05-16T12:05:09;9.32;;;3.05;;
23300;SDS011;11819;51.394;12.340;2023-05-16T12:07:36;8.25;;;3.67;;
23300;SDS011;11819;51.394;12.340;2023-05-16T12:10:06;8.52;;;3.35;;
23300;SDS011;11819;51.394;12.340;2023-05-16T12:12:33;12.27;;;3.92;;
23300;SDS011;11819;51.394;12.340;2023-05-16T12:15:00;11.57;;;3.90;;
23300;SDS011;11819;51.394;12.340;2023-05-16T12:17:30;9.32;;;3.50;;
23300;SDS011;11819;51.394;12.340;2023-05-16T12:19:57;8.75;;;3.03;;
23300;SDS011;11819;51.394;12.340;2023-05-16T12:22:24;9.35;;;3.15;;
23300;SDS011;11819;51.394;12.340;2023-05-16T12:24:49;8.48;;;2.55;;
23300;SDS011;11819;51.394;12.340;2023-05-16T12:27:22;7.43;;;4.22;;
23300;SDS011;11819;51.394;12.340;2023-05-16T12:29:49;4.50;;;2.47;;
23300;SDS011;11819;51.394;12.340;2023-05-16T12:32:19;10.32;;;2.38;;
23300;SDS011;11819;51.394;12.340;2023-05-16T12:34:48;6.13;;;2.30;;
23300;SDS011;11819;51.394;12.340;2023-05-16T12:37:16;7.20;;;2.83;;
23300;SDS011;11819;51.394;12.340;2023-05-16T12:39:41;7.10;;;2.88;;
23300;SDS011;11819;51.394;12.340;2023-05-16T12:42:07;9.48;;;3.38;;
23300;SDS011;11819;51.394;12.340;2023-05-16T12:44:33;8.18;;;2.60;;
23300;SDS011;11819;51.394;12.340;2023-05-16T12:47:01;11.40;;;3.10;;
23300;SDS011;11819;51.394;12.340;2023-05-16T12:49:27;10.30;;;2.67;;
23300;SDS011;11819;51.394;12.340;2023-05-16T12:51:53;7.57;;;2.92;;
23300;SDS011;11819;51.394;12.340;2023-05-16T12:54:21;9.35;;;2.83;;
23300;SDS011;11819;51.394;12.340;2023-05-16T12:56:47;5.28;;;2.67;;
23300;SDS011;11819;51.394;12.340;2023-05-16T12:59:13;6.93;;;2.72;;
23300;SDS011;11819;51.394;12.340;2023-05-16T13:01:39;8.82;;;2.95;;
23300;SDS011;11819;51.394;12.340;2023-05-16T13:04:06;5.45;;;2.38;;
23300;SDS011;11819;51.394;12.340;2023-05-16T13:06:32;9.23;;;2.80;;
23300;SDS011;11819;51.394;12.340;2023-05-16T13:08:58;5.35;;;2.55;;
23300;SDS011;11819;51.394;12.340;2023-05-16T13:11:24;7.78;;;2.90;;
23300;SDS011;11819;51.394;12.340;2023-05-16T13:13:51;9.10;;;2.75;;
23300;SDS011;11819;51.394;12.340;2023-05-16T13:16:18;7.75;;;2.70;;
23300;SDS011;11819;51.394;12.340;2023-05-16T13:18:43;5.28;;;2.33;;
23300;SDS011;11819;51.394;12.340;2023-05-16T13:21:09;5.82;;;2.50;;
23300;SDS011;11819;51.394;12.340;2023-05-16T13:23:34;6.60;;;2.25;;
23300;SDS011;11819;51.394;12.340;2023-05-16T13:26:00;7.75;;;2.80;;
23300;SDS011;11819;51.394;12.340;2023-05-16T13:28:26;8.52;;;2.60;;
23300;SDS011;11819;51.394;12.340;2023-05-16T13:30:51;5.65;;;2.20;;
23300;SDS011;11819;51.394;12.340;2023-05-16T13:33:17;5.72;;;2.10;;
23300;SDS011;11819;51.394;12.340;2023-05-16T13:35:43;6.80;;;2.45;;
23300;SDS011;11819;51.394;12.340;2023-05-16T13:38:08;4.75;;;2.10;;
23300;SDS011;11819;51.394;12.340;2023-05-16T13:40:34;6.78;;;2.45;;
23300;SDS011;11819;51.394;12.340;2023-05-16T13:43:00;7.25;;;2.22;;
23300;SDS011;11819;51.394;12.340;2023-05-16T13:45:26;7.25;;;2.60;;
23300;SDS011;11819;51.394;12.340;2023-05-16T13:47:52;5.75;;;2.10;;
23300;SDS011;11819;51.394;12.340;2023-05-16T13:50:18;4.93;;;2.22;;
23300;SDS011;11819;51.394;12.340;2023-05-16T13:52:44;7.10;;;2.35;;
23300;SDS011;11819;51.394;12.340;2023-05-16T13:55:11;6.70;;;2.30;;
23300;SDS011;11819;51.394;12.340;2023-05-16T13:57:37;8.25;;;2.65;;
23300;SDS011;11819;51.394;12.340;2023-05-16T14:00:03;7.50;;;2.38;;
23300;SDS011;11819;51.394;12.340;2023-05-16T14:02:39;6.85;;;2.05;;
23300;SDS011;11819;51.394;12.340;2023-05-16T14:05:06;7.30;;;2.03;;
23300;SDS011;11819;51.394;12.340;2023-05-16T14:07:32;7.28;;;2.10;;
23300;SDS011;11819;51.394;12.340;2023-05-16T14:09:58;6.60;;;2.08;;
23300;SDS011;11819;51.394;12.340;2023-05-16T14:12:24;6.65;;;2.10;;
23300;SDS011;11819;51.394;12.340;2023-05-16T14:14:49;6.90;;;2.15;;
23300;SDS011;11819;51.394;12.340;2023-05-16T14:17:15;4.85;;;1.65;;
23300;SDS011;11819;51.394;12.340;2023-05-16T14:19:41;6.22;;;2.08;;
23300;SDS011;11819;51.394;12.340;2023-05-16T14:22:06;8.18;;;2.17;;
23300;SDS011;11819;51.394;12.340;2023-05-16T14:24:32;6.43;;;2.15;;
23300;SDS011;11819;51.394;12.340;2023-05-16T14:26:58;6.40;;;1.98;;
23300;SDS011;11819;51.394;12.340;2023-05-16T14:29:24;6.22;;;2.38;;
23300;SDS011;11819;51.394;12.340;2023-05-16T14:31:50;4.63;;;1.83;;
23300;SDS011;11819;51.394;12.340;2023-05-16T14:34:15;6.10;;;2.00;;
23300;SDS011;11819;51.394;12.340;2023-05-16T14:36:41;2.88;;;1.80;;
23300;SDS011;11819;51.394;12.340;2023-05-16T14:39:07;6.63;;;1.90;;
23300;SDS011;11819;51.394;12.340;2023-05-16T14:41:34;5.13;;;1.77;;